createdAt,value
2018-05-17T00:01:58.236Z,100520
2018-05-17T00:04:27.155Z,100515
2018-05-17T00:06:55.446Z,100520
2018-05-17T00:09:23.965Z,100522
2018-05-17T00:11:52.206Z,100505
2018-05-17T00:14:20.397Z,100513
2018-05-17T00:16:48.556Z,100517
2018-05-17T00:19:16.757Z,100516
2018-05-17T00:21:44.898Z,100516
2018-05-17T00:24:13.745Z,100522
2018-05-17T00:26:41.896Z,100522
2018-05-17T00:29:11.009Z,100527
2018-05-17T00:31:39.191Z,100514
2018-05-17T00:34:07.359Z,100519
2018-05-17T00:36:36.333Z,100516
2018-05-17T00:39:06.184Z,100515
2018-05-17T00:41:34.350Z,100514
2018-05-17T00:44:02.541Z,100519
2018-05-17T00:46:30.684Z,100508
2018-05-17T00:48:58.801Z,100513
2018-05-17T00:51:26.988Z,100509
2018-05-17T00:53:55.120Z,100505
2018-05-17T00:56:23.243Z,100513
2018-05-17T00:58:51.491Z,100514
2018-05-17T01:01:19.622Z,100512
2018-05-17T01:03:47.756Z,100514
2018-05-17T01:06:15.898Z,100510
2018-05-17T01:08:44.762Z,100496
2018-05-17T01:11:12.926Z,100498
2018-05-17T01:13:41.107Z,100504
2018-05-17T01:16:09.259Z,100497
2018-05-17T01:18:38.783Z,100500
2018-05-17T01:21:06.946Z,100493
2018-05-17T01:23:35.175Z,100485
2018-05-17T01:26:03.747Z,100489
2018-05-17T01:28:31.912Z,100489
2018-05-17T01:31:00.973Z,100493
2018-05-17T01:33:29.129Z,100500
2018-05-17T01:35:58.080Z,100497
2018-05-17T01:38:26.936Z,100491
2018-05-17T01:40:55.122Z,100495
2018-05-17T01:43:23.253Z,100496
2018-05-17T01:45:52.188Z,100495
2018-05-17T01:48:20.358Z,100498
2018-05-17T01:50:48.518Z,100499
2018-05-17T01:53:16.660Z,100496
2018-05-17T01:55:45.584Z,100500
2018-05-17T01:58:13.734Z,100490
2018-05-17T02:00:42.766Z,100497
2018-05-17T02:03:10.966Z,100498
2018-05-17T02:05:39.121Z,100494
2018-05-17T02:08:07.288Z,100488
2018-05-17T02:10:35.447Z,100498
2018-05-17T02:13:03.635Z,100496
2018-05-17T02:15:31.841Z,100483
2018-05-17T02:17:59.965Z,100486
2018-05-17T02:20:28.221Z,100486
2018-05-17T02:22:56.370Z,100484
2018-05-17T02:25:25.288Z,100473
2018-05-17T02:27:53.466Z,100486
2018-05-17T02:30:21.647Z,100486
2018-05-17T02:32:49.798Z,100497
2018-05-17T02:35:17.954Z,100503
2018-05-17T02:37:46.877Z,100502
2018-05-17T02:40:15.012Z,100499
2018-05-17T02:42:43.937Z,100503
2018-05-17T02:45:12.089Z,100500
2018-05-17T02:47:41.018Z,100504
2018-05-17T02:50:09.188Z,100497
2018-05-17T02:52:38.001Z,100500
2018-05-17T02:55:06.134Z,100490
2018-05-17T02:57:34.295Z,100495
2018-05-17T03:00:02.474Z,100497
2018-05-17T03:02:30.649Z,100496
2018-05-17T03:04:58.795Z,100499
2018-05-17T03:07:27.727Z,100492
2018-05-17T03:09:55.987Z,100496
2018-05-17T03:12:24.141Z,100491
2018-05-17T03:14:52.467Z,100487
2018-05-17T03:17:20.686Z,100495
2018-05-17T03:19:49.652Z,100495
2018-05-17T03:22:18.429Z,100496
2018-05-17T03:24:46.717Z,100502
2018-05-17T03:27:14.874Z,100496
2018-05-17T03:29:43.053Z,100505
2018-05-17T03:32:11.220Z,100511
2018-05-17T03:34:39.397Z,100506
2018-05-17T03:37:07.553Z,100517
2018-05-17T03:39:35.685Z,100518
2018-05-17T03:42:04.648Z,100523
2018-05-17T03:44:32.776Z,100524
2018-05-17T03:47:00.945Z,100527
2018-05-17T03:49:29.123Z,100531
2018-05-17T03:51:57.325Z,100519
2018-05-17T03:54:26.320Z,100523
2018-05-17T03:56:55.316Z,100522
2018-05-17T03:59:23.466Z,100529
2018-05-17T04:02:09.656Z,100520
2018-05-17T04:04:55.969Z,100527
2018-05-17T04:07:24.124Z,100531
2018-05-17T04:09:53.104Z,100537
2018-05-17T04:12:21.415Z,100527
2018-05-17T04:14:49.565Z,100530
2018-05-17T04:17:17.693Z,100528
2018-05-17T04:19:47.105Z,100528
2018-05-17T04:22:15.225Z,100537
2018-05-17T04:24:43.382Z,100540
2018-05-17T04:27:11.586Z,100544
2018-05-17T04:29:39.865Z,100543
2018-05-17T04:32:08.039Z,100545
2018-05-17T04:34:36.235Z,100544
2018-05-17T04:37:09.808Z,100545
2018-05-17T04:39:37.952Z,100543
2018-05-17T04:42:06.752Z,100538
2018-05-17T04:44:34.916Z,100552
2018-05-17T04:47:03.101Z,100555
2018-05-17T04:49:31.619Z,100552
2018-05-17T04:52:00.570Z,100551
2018-05-17T04:54:28.701Z,100549
2018-05-17T04:56:56.829Z,100551
2018-05-17T04:59:24.998Z,100552
2018-05-17T05:01:54.182Z,100558
2018-05-17T05:04:22.333Z,100554
2018-05-17T05:06:50.472Z,100555
2018-05-17T05:09:20.322Z,100552
2018-05-17T05:11:48.398Z,100555
2018-05-17T05:14:16.562Z,100556
2018-05-17T05:16:44.743Z,100559
2018-05-17T05:19:12.914Z,100559
2018-05-17T05:21:41.090Z,100563
2018-05-17T05:24:09.229Z,100563
2018-05-17T05:26:37.353Z,100568
2018-05-17T05:29:05.630Z,100571
2018-05-17T05:31:33.818Z,100566
2018-05-17T05:34:01.981Z,100563
2018-05-17T05:36:30.114Z,100564
2018-05-17T05:38:58.277Z,100568
2018-05-17T05:41:26.433Z,100566
2018-05-17T05:43:55.348Z,100573
2018-05-17T05:46:23.555Z,100568
2018-05-17T05:48:51.693Z,100569
2018-05-17T05:51:19.821Z,100570
2018-05-17T05:53:48.020Z,100565
2018-05-17T05:56:16.149Z,100578
2018-05-17T05:58:44.299Z,100582
2018-05-17T06:01:12.462Z,100587
2018-05-17T06:03:40.601Z,100588
2018-05-17T06:06:09.560Z,100588
2018-05-17T06:08:37.719Z,100594
2018-05-17T06:11:05.890Z,100587
2018-05-17T06:13:34.076Z,100591
2018-05-17T06:16:02.220Z,100595
2018-05-17T06:18:30.389Z,100603
2018-05-17T06:20:58.571Z,100602
2018-05-17T06:23:26.712Z,100599
2018-05-17T06:25:54.845Z,100608
2018-05-17T06:28:23.071Z,100604
2018-05-17T06:30:51.198Z,100610
2018-05-17T06:33:19.467Z,100611
2018-05-17T06:35:48.425Z,100609
2018-05-17T06:38:16.607Z,100610
2018-05-17T06:40:44.778Z,100608
2018-05-17T06:43:12.920Z,100615
2018-05-17T06:45:41.050Z,100610
2018-05-17T06:48:09.197Z,100617
2018-05-17T06:50:37.332Z,100621
2018-05-17T06:53:05.464Z,100618
2018-05-17T06:55:33.608Z,100627
2018-05-17T06:58:01.785Z,100620
2018-05-17T07:00:30.541Z,100623
2018-05-17T07:02:58.675Z,100636
2018-05-17T07:05:26.810Z,100628
2018-05-17T07:07:54.991Z,100630
2018-05-17T07:10:23.231Z,100621
2018-05-17T07:12:52.196Z,100626
2018-05-17T07:15:20.387Z,100632
2018-05-17T07:17:48.600Z,100625
2018-05-17T07:20:16.719Z,100635
2018-05-17T07:22:45.670Z,100640
2018-05-17T07:25:13.817Z,100641
2018-05-17T07:27:41.969Z,100649
2018-05-17T07:30:10.162Z,100641
2018-05-17T07:32:38.304Z,100645
2018-05-17T07:35:07.195Z,100648
2018-05-17T07:37:36.237Z,100651
2018-05-17T07:40:04.366Z,100649
2018-05-17T07:42:32.520Z,100650
2018-05-17T07:45:02.245Z,100647
2018-05-17T07:47:31.451Z,100653
2018-05-17T07:49:59.625Z,100653
2018-05-17T07:52:27.751Z,100656
2018-05-17T07:54:55.917Z,100654
2018-05-17T07:57:24.043Z,100662
2018-05-17T07:59:52.169Z,100661
2018-05-17T08:02:20.312Z,100663
2018-05-17T08:04:48.428Z,100663
2018-05-17T08:07:16.668Z,100665
2018-05-17T08:09:44.804Z,100662
2018-05-17T08:12:13.446Z,100665
2018-05-17T08:14:41.631Z,100668
2018-05-17T08:17:10.663Z,100658
2018-05-17T08:19:38.862Z,100668
2018-05-17T08:22:06.984Z,100658
2018-05-17T08:24:35.929Z,100665
2018-05-17T08:27:04.080Z,100669
2018-05-17T08:29:32.204Z,100667
2018-05-17T08:32:00.371Z,100665
2018-05-17T08:34:28.513Z,100669
2018-05-17T08:36:56.639Z,100672
2018-05-17T08:39:26.188Z,100677
2018-05-17T08:41:54.395Z,100676
2018-05-17T08:44:23.347Z,100674
2018-05-17T08:46:51.516Z,100676
2018-05-17T08:49:19.672Z,100674
2018-05-17T08:51:47.822Z,100675
2018-05-17T08:54:16.757Z,100673
2018-05-17T08:56:45.046Z,100682
2018-05-17T08:59:13.177Z,100676
2018-05-17T09:01:41.351Z,100676
2018-05-17T09:04:09.485Z,100673
2018-05-17T09:06:37.668Z,100674
2018-05-17T09:09:06.602Z,100683
2018-05-17T09:11:34.789Z,100679
2018-05-17T09:14:02.913Z,100685
2018-05-17T09:16:31.796Z,100683
2018-05-17T09:19:00.727Z,100680
2018-05-17T09:21:28.883Z,100687
2018-05-17T09:23:57.039Z,100689
2018-05-17T09:26:25.932Z,100680
2018-05-17T09:28:54.868Z,100692
2018-05-17T09:31:22.997Z,100699
2018-05-17T09:33:51.935Z,100684
2018-05-17T09:36:20.093Z,100698
2018-05-17T09:38:48.341Z,100703
2018-05-17T09:41:16.616Z,100711
2018-05-17T09:43:44.680Z,100716
2018-05-17T09:46:13.646Z,100709
2018-05-17T09:48:42.580Z,100716
2018-05-17T09:51:10.701Z,100723
2018-05-17T09:53:38.887Z,100725
2018-05-17T09:56:07.846Z,100730
2018-05-17T09:58:36.011Z,100728
2018-05-17T10:01:04.188Z,100729
2018-05-17T10:03:32.478Z,100723
2018-05-17T10:06:00.686Z,100724
2018-05-17T10:08:29.612Z,100719
2018-05-17T10:10:57.725Z,100710
2018-05-17T10:13:25.851Z,100716
2018-05-17T10:15:53.996Z,100715
2018-05-17T10:18:22.889Z,100696
2018-05-17T10:20:51.793Z,100707
2018-05-17T10:23:19.972Z,100716
2018-05-17T10:25:48.107Z,100710
2018-05-17T10:28:17.301Z,100711
2018-05-17T10:30:45.437Z,100708
2018-05-17T10:33:13.667Z,100713
2018-05-17T10:35:41.839Z,100721
2018-05-17T10:38:10.025Z,100719
2018-05-17T10:40:38.185Z,100723
2018-05-17T10:43:06.325Z,100712
2018-05-17T10:45:34.536Z,100728
2018-05-17T10:48:02.706Z,100730
2018-05-17T10:50:30.889Z,100722
2018-05-17T10:52:59.053Z,100719
2018-05-17T10:55:27.380Z,100722
2018-05-17T10:57:55.523Z,100732
2018-05-17T11:00:23.660Z,100721
2018-05-17T11:02:52.626Z,100725
2018-05-17T11:05:20.774Z,100726
2018-05-17T11:07:48.898Z,100729
2018-05-17T11:10:18.116Z,100726
2018-05-17T11:12:46.251Z,100732
2018-05-17T11:15:14.995Z,100722
2018-05-17T11:17:43.129Z,100727
2018-05-17T11:20:12.552Z,100732
2018-05-17T11:22:40.683Z,100741
2018-05-17T11:25:08.841Z,100723
2018-05-17T11:27:37.069Z,100736
2018-05-17T11:30:05.238Z,100738
2018-05-17T11:32:34.236Z,100742
2018-05-17T11:35:02.349Z,100741
2018-05-17T11:37:30.685Z,100753
2018-05-17T11:39:58.844Z,100736
2018-05-17T11:42:26.978Z,100734
2018-05-17T11:44:55.235Z,100739
2018-05-17T11:47:23.411Z,100734
2018-05-17T11:49:52.400Z,100738
2018-05-17T11:52:20.658Z,100728
2018-05-17T11:54:48.837Z,100731
2018-05-17T11:57:17.030Z,100735
2018-05-17T11:59:45.185Z,100738
2018-05-17T12:02:13.461Z,100737
2018-05-17T12:04:41.613Z,100749
2018-05-17T12:07:10.255Z,100755
2018-05-17T12:09:38.386Z,100749
2018-05-17T12:12:07.237Z,100749
2018-05-17T12:14:35.574Z,100746
2018-05-17T12:17:03.874Z,100753
2018-05-17T12:19:32.759Z,100752
2018-05-17T12:22:00.900Z,100751
2018-05-17T12:24:29.028Z,100745
2018-05-17T12:26:57.176Z,100751
2018-05-17T12:29:26.458Z,100749
2018-05-17T12:31:54.665Z,100747
2018-05-17T12:34:23.565Z,100746
2018-05-17T12:36:51.748Z,100748
2018-05-17T12:39:19.901Z,100745
2018-05-17T12:41:49.472Z,100745
2018-05-17T12:44:17.597Z,100751
2018-05-17T12:46:45.733Z,100753
2018-05-17T12:49:14.672Z,100749
2018-05-17T12:51:42.789Z,100770
2018-05-17T12:54:10.954Z,100759
2018-05-17T12:56:39.182Z,100750
2018-05-17T12:59:07.266Z,100754
2018-05-17T13:01:35.439Z,100746
2018-05-17T13:04:03.556Z,100746
2018-05-17T13:06:31.764Z,100747
2018-05-17T13:08:59.913Z,100731
2018-05-17T13:11:28.829Z,100739
2018-05-17T13:13:56.989Z,100742
2018-05-17T13:16:25.149Z,100729
2018-05-17T13:18:54.455Z,100736
2018-05-17T13:21:23.383Z,100748
2018-05-17T13:23:51.646Z,100744
2018-05-17T13:26:20.747Z,100743
2018-05-17T13:28:49.043Z,100744
2018-05-17T13:31:17.198Z,100735
2018-05-17T13:33:45.341Z,100734
2018-05-17T13:36:13.562Z,100729
2018-05-17T13:38:41.714Z,100734
2018-05-17T13:41:09.863Z,100739
2018-05-17T13:43:37.972Z,100739
2018-05-17T13:46:06.120Z,100743
2018-05-17T13:48:34.268Z,100726
2018-05-17T13:51:03.217Z,100739
2018-05-17T13:53:31.328Z,100736
2018-05-17T13:56:00.250Z,100731
2018-05-17T13:58:28.381Z,100727
2018-05-17T14:00:57.283Z,100727
2018-05-17T14:03:26.322Z,100742
2018-05-17T14:05:54.484Z,100734
2018-05-17T14:08:22.670Z,100733
2018-05-17T14:10:50.803Z,100722
2018-05-17T14:13:19.747Z,100721
2018-05-17T14:15:47.909Z,100721
2018-05-17T14:18:16.076Z,100724
2018-05-17T14:20:44.699Z,100720
2018-05-17T14:23:12.931Z,100721
2018-05-17T14:25:41.792Z,100731
2018-05-17T14:28:09.987Z,100726
2018-05-17T14:30:38.139Z,100726
2018-05-17T14:33:06.350Z,100721
2018-05-17T14:35:34.568Z,100725
2018-05-17T14:38:03.485Z,100737
2018-05-17T14:40:31.610Z,100729
2018-05-17T14:42:59.740Z,100729
2018-05-17T14:45:27.862Z,100716
2018-05-17T14:47:55.984Z,100726
2018-05-17T14:50:24.126Z,100729
2018-05-17T14:52:52.285Z,100730
2018-05-17T14:55:21.201Z,100722
2018-05-17T14:57:49.372Z,100733
2018-05-17T15:00:17.499Z,100725
2018-05-17T15:02:45.615Z,100719
2018-05-17T15:05:13.741Z,100716
2018-05-17T15:07:41.918Z,100723
2018-05-17T15:10:10.058Z,100718
2018-05-17T15:12:38.205Z,100722
2018-05-17T15:15:06.337Z,100721
2018-05-17T15:17:35.264Z,100723
2018-05-17T15:20:03.453Z,100726
2018-05-17T15:22:31.568Z,100726
2018-05-17T15:24:59.730Z,100728
2018-05-17T15:27:27.970Z,100722
2018-05-17T15:29:56.878Z,100726
2018-05-17T15:32:25.304Z,100725
2018-05-17T15:34:54.242Z,100721
2018-05-17T15:37:22.412Z,100728
2018-05-17T15:39:50.566Z,100721
2018-05-17T15:42:18.787Z,100725
2018-05-17T15:44:46.962Z,100726
2018-05-17T15:47:15.121Z,100724
2018-05-17T15:49:43.241Z,100718
2018-05-17T15:52:12.128Z,100719
2018-05-17T15:54:41.466Z,100727
2018-05-17T15:57:11.097Z,100712
2018-05-17T15:59:39.218Z,100726
2018-05-17T16:02:07.386Z,100718
2018-05-17T16:04:35.526Z,100718
2018-05-17T16:07:03.751Z,100726
2018-05-17T16:09:31.911Z,100732
2018-05-17T16:12:00.337Z,100737
2018-05-17T16:14:28.490Z,100732
2018-05-17T16:16:56.670Z,100727
2018-05-17T16:19:24.826Z,100731
2018-05-17T16:21:53.032Z,100727
2018-05-17T16:24:22.599Z,100747
2018-05-17T16:26:50.718Z,100736
2018-05-17T16:29:18.901Z,100731
2018-05-17T16:31:47.054Z,100739
2018-05-17T16:34:16.034Z,100736
2018-05-17T16:36:44.350Z,100739
2018-05-17T16:39:13.265Z,100743
2018-05-17T16:41:41.897Z,100733
2018-05-17T16:44:10.037Z,100739
2018-05-17T16:46:38.237Z,100744
2018-05-17T16:49:06.489Z,100732
2018-05-17T16:51:34.689Z,100733
2018-05-17T16:54:02.840Z,100732
2018-05-17T16:56:30.996Z,100738
2018-05-17T16:58:59.298Z,100744
2018-05-17T17:01:27.420Z,100746
2018-05-17T17:03:57.106Z,100748
2018-05-17T17:06:25.258Z,100742
2018-05-17T17:08:53.434Z,100741
2018-05-17T17:11:21.583Z,100743
2018-05-17T17:13:49.787Z,100745
2018-05-17T17:16:17.959Z,100749
2018-05-17T17:18:46.093Z,100757
2018-05-17T17:21:14.308Z,100751
2018-05-17T17:23:42.564Z,100745
2018-05-17T17:26:10.692Z,100744
2018-05-17T17:28:39.601Z,100744
2018-05-17T17:31:07.767Z,100746
2018-05-17T17:33:35.909Z,100744
2018-05-17T17:36:04.026Z,100751
2018-05-17T17:38:32.194Z,100745
2018-05-17T17:41:00.344Z,100755
2018-05-17T17:43:29.272Z,100752
2018-05-17T17:45:57.431Z,100760
2018-05-17T17:48:25.623Z,100752
2018-05-17T17:50:53.803Z,100760
2018-05-17T17:53:21.987Z,100772
2018-05-17T17:55:50.149Z,100765
2018-05-17T17:58:18.430Z,100770
2018-05-17T18:00:47.248Z,100772
2018-05-17T18:03:16.168Z,100770
2018-05-17T18:05:44.331Z,100779
2018-05-17T18:08:12.506Z,100770
2018-05-17T18:10:40.670Z,100777
2018-05-17T18:13:08.837Z,100773
2018-05-17T18:15:37.751Z,100775
2018-05-17T18:18:06.753Z,100784
2018-05-17T18:20:34.913Z,100800
2018-05-17T18:23:03.090Z,100796
2018-05-17T18:25:31.309Z,100793
2018-05-17T18:27:59.468Z,100798
2018-05-17T18:30:27.589Z,100790
2018-05-17T18:32:56.527Z,100797
2018-05-17T18:35:25.256Z,100799
2018-05-17T18:37:54.153Z,100800
2018-05-17T18:40:23.062Z,100809
2018-05-17T18:42:51.233Z,100810
2018-05-17T18:45:19.407Z,100809
2018-05-17T18:47:47.563Z,100822
2018-05-17T18:50:16.624Z,100818
2018-05-17T18:52:44.791Z,100831
2018-05-17T18:55:12.951Z,100829
2018-05-17T18:57:41.236Z,100834
2018-05-17T19:00:09.450Z,100833
2018-05-17T19:02:37.659Z,100845
2018-05-17T19:05:06.532Z,100844
2018-05-17T19:07:34.702Z,100847
2018-05-17T19:10:02.931Z,100847
2018-05-17T19:12:31.105Z,100857
2018-05-17T19:14:59.290Z,100856
2018-05-17T19:17:28.595Z,100866
2018-05-17T19:19:57.503Z,100869
2018-05-17T19:22:26.520Z,100874
2018-05-17T19:24:54.654Z,100875
2018-05-17T19:27:22.832Z,100884
2018-05-17T19:29:52.378Z,100884
2018-05-17T19:32:20.501Z,100889
2018-05-17T19:34:49.446Z,100906
2018-05-17T19:37:17.697Z,100894
2018-05-17T19:39:46.729Z,100896
2018-05-17T19:42:14.957Z,100904
2018-05-17T19:44:43.104Z,100907
2018-05-17T19:47:12.019Z,100897
2018-05-17T19:49:40.207Z,100902
2018-05-17T19:52:08.348Z,100900
2018-05-17T19:54:37.263Z,100912
2018-05-17T19:57:05.398Z,100912
2018-05-17T19:59:33.622Z,100927
2018-05-17T20:02:01.764Z,100916
2018-05-17T20:04:30.696Z,100912
2018-05-17T20:06:58.916Z,100929
2018-05-17T20:09:27.862Z,100923
2018-05-17T20:11:56.010Z,100915
2018-05-17T20:14:24.248Z,100923
2018-05-17T20:16:54.027Z,100930
2018-05-17T20:19:22.299Z,100925
2018-05-17T20:21:50.493Z,100928
2018-05-17T20:24:18.625Z,100926
2018-05-17T20:26:46.803Z,100936
2018-05-17T20:29:15.079Z,100926
2018-05-17T20:31:43.274Z,100928
2018-05-17T20:34:11.476Z,100938
2018-05-17T20:36:40.383Z,100930
2018-05-17T20:39:08.581Z,100936
2018-05-17T20:41:36.717Z,100950
2018-05-17T20:44:05.726Z,100942
2018-05-17T20:46:33.896Z,100946
2018-05-17T20:49:02.065Z,100950
2018-05-17T20:51:30.237Z,100941
2018-05-17T20:53:58.780Z,100946
2018-05-17T20:56:26.919Z,100959
2018-05-17T20:58:55.081Z,100959
2018-05-17T21:01:23.570Z,100964
2018-05-17T21:03:51.712Z,100963
2018-05-17T21:06:20.627Z,100972
2018-05-17T21:08:48.814Z,100981
2018-05-17T21:11:16.990Z,100971
2018-05-17T21:13:45.128Z,100973
2018-05-17T21:16:14.026Z,100984
2018-05-17T21:18:42.179Z,100985
2018-05-17T21:21:11.109Z,100988
2018-05-17T21:23:39.257Z,100999
2018-05-17T21:26:07.438Z,100999
2018-05-17T21:28:35.574Z,100996
2018-05-17T21:31:03.747Z,101001
2018-05-17T21:33:31.938Z,100990
2018-05-17T21:36:00.874Z,100989
2018-05-17T21:38:29.030Z,100996
2018-05-17T21:40:57.180Z,100996
2018-05-17T21:43:25.385Z,101002
2018-05-17T21:45:53.551Z,101007
2018-05-17T21:48:21.765Z,100997
2018-05-17T21:50:50.000Z,101002
2018-05-17T21:53:18.289Z,101011
2018-05-17T21:55:46.420Z,101003
2018-05-17T21:58:15.348Z,101002
2018-05-17T22:00:43.508Z,101012
2018-05-17T22:03:11.666Z,101016
2018-05-17T22:05:39.848Z,101016
2018-05-17T22:08:07.978Z,101024
2018-05-17T22:10:36.129Z,101020
2018-05-17T22:13:04.249Z,101029
2018-05-17T22:15:33.283Z,101031
2018-05-17T22:18:01.429Z,101037
2018-05-17T22:20:29.633Z,101038
2018-05-17T22:22:58.795Z,101026
2018-05-17T22:25:26.926Z,101037
2018-05-17T22:27:55.492Z,101034
2018-05-17T22:30:23.682Z,101031
2018-05-17T22:32:51.845Z,101036
2018-05-17T22:35:20.035Z,101037
2018-05-17T22:37:49.003Z,101037
2018-05-17T22:40:17.203Z,101038
2018-05-17T22:42:46.148Z,101038
2018-05-17T22:45:14.330Z,101033
2018-05-17T22:47:42.491Z,101031
2018-05-17T22:50:10.669Z,101046
2018-05-17T22:52:38.927Z,101044
2018-05-17T22:55:07.096Z,101055
2018-05-17T22:57:53.099Z,101042
2018-05-17T23:00:21.255Z,101039
2018-05-17T23:02:49.435Z,101039
2018-05-17T23:05:17.610Z,101032
2018-05-17T23:07:45.761Z,101039
2018-05-17T23:10:13.950Z,101029
2018-05-17T23:12:42.093Z,101029
2018-05-17T23:15:11.049Z,101024
2018-05-17T23:17:39.977Z,101030
2018-05-17T23:20:08.898Z,101020
2018-05-17T23:22:37.891Z,101026
2018-05-17T23:25:08.960Z,101026
2018-05-17T23:27:37.152Z,101031
2018-05-17T23:30:05.293Z,101026
2018-05-17T23:32:33.451Z,101035
2018-05-17T23:35:01.654Z,101044
2018-05-17T23:37:29.844Z,101017
2018-05-17T23:40:15.839Z,101051
2018-05-17T23:42:44.123Z,101006
2018-05-17T23:45:13.487Z,101045
2018-05-17T23:47:41.630Z,101043
2018-05-17T23:50:09.791Z,101046
2018-05-17T23:52:37.993Z,101055
2018-05-17T23:55:06.124Z,101052
2018-05-17T23:57:35.873Z,101041
